createdAt,value
2022-08-07T00:00:15.379Z,3.60
2022-08-07T00:02:35.536Z,3.72
2022-08-07T00:02:44.280Z,3.35
2022-08-07T00:03:47.276Z,3.10
2022-08-07T00:04:49.207Z,3.30
2022-08-07T00:05:52.677Z,3.60
2022-08-07T00:06:55.624Z,3.78
2022-08-07T00:08:03.707Z,3.40
2022-08-07T00:09:16.311Z,4.30
2022-08-07T00:10:26.482Z,4.00
2022-08-07T00:11:30.016Z,4.20
2022-08-07T00:12:34.980Z,4.40
2022-08-07T00:13:57.553Z,5.18
2022-08-07T00:15:01.017Z,5.18
2022-08-07T00:16:03.643Z,4.30
2022-08-07T00:17:06.720Z,5.00
2022-08-07T00:18:09.567Z,4.65
2022-08-07T00:19:21.744Z,5.45
2022-08-07T00:20:29.875Z,5.40
2022-08-07T00:21:56.008Z,4.85
2022-08-07T00:22:57.858Z,4.93
2022-08-07T00:24:00.771Z,5.10
2022-08-07T00:25:16.463Z,5.30
2022-08-07T00:26:48.654Z,4.50
2022-08-07T00:27:52.699Z,4.97
2022-08-07T00:28:57.021Z,5.22
2022-08-07T00:29:58.872Z,5.25
2022-08-07T00:31:05.820Z,4.50
2022-08-07T00:32:08.164Z,5.15
2022-08-07T00:33:10.086Z,4.55
2022-08-07T00:34:13.222Z,4.75
2022-08-07T00:35:19.430Z,6.32
2022-08-07T00:36:24.785Z,4.88
2022-08-07T00:37:30.935Z,5.20
2022-08-07T00:38:50.522Z,4.80
2022-08-07T00:39:55.792Z,4.60
2022-08-07T00:40:58.259Z,4.90
2022-08-07T00:42:01.948Z,5.13
2022-08-07T00:43:09.740Z,5.25
2022-08-07T00:44:12.315Z,4.68
2022-08-07T00:45:16.959Z,5.28
2022-08-07T00:46:19.968Z,4.88
2022-08-07T00:48:08.136Z,5.10
2022-08-07T00:48:49.850Z,4.60
2022-08-07T00:50:19.991Z,5.57
2022-08-07T00:51:14.220Z,4.28
2022-08-07T00:52:17.674Z,5.30
2022-08-07T00:53:21.857Z,4.78
2022-08-07T00:54:23.959Z,5.55
2022-08-07T00:56:02.401Z,4.90
2022-08-07T00:56:49.891Z,4.43
2022-08-07T00:57:55.414Z,4.47
2022-08-07T00:58:58.721Z,4.03
2022-08-07T01:00:00.651Z,4.30
2022-08-07T01:01:02.426Z,4.22
2022-08-07T01:02:09.080Z,3.88
2022-08-07T01:03:57.020Z,4.40
2022-08-07T01:04:50.782Z,5.15
2022-08-07T01:05:55.650Z,4.13
2022-08-07T01:06:57.561Z,5.10
2022-08-07T01:07:59.337Z,4.60
2022-08-07T01:09:02.864Z,4.53
2022-08-07T01:10:11.229Z,4.82
2022-08-07T01:12:09.489Z,5.10
2022-08-07T01:12:38.004Z,5.47
2022-08-07T01:13:41.049Z,5.75
2022-08-07T01:15:01.078Z,5.47
2022-08-07T01:16:07.164Z,6.00
2022-08-07T01:17:10.802Z,5.97
2022-08-07T01:18:17.081Z,6.47
2022-08-07T01:19:20.753Z,5.13
2022-08-07T01:20:35.365Z,6.00
2022-08-07T01:21:45.985Z,6.35
2022-08-07T01:23:00.737Z,7.22
2022-08-07T01:24:10.466Z,6.78
2022-08-07T01:25:39.867Z,6.22
2022-08-07T01:26:34.868Z,6.20
2022-08-07T01:27:37.242Z,6.13
2022-08-07T01:28:46.364Z,5.88
2022-08-07T01:29:51.152Z,6.35
2022-08-07T01:30:55.406Z,6.38
2022-08-07T01:31:59.461Z,6.15
2022-08-07T01:33:02.319Z,5.95
2022-08-07T01:34:05.799Z,5.75
2022-08-07T01:35:07.957Z,5.65
2022-08-07T01:36:11.989Z,5.30
2022-08-07T01:37:18.971Z,5.68
2022-08-07T01:38:25.727Z,6.25
2022-08-07T01:39:40.553Z,5.75
2022-08-07T01:40:49.293Z,5.78
2022-08-07T01:42:36.852Z,5.68
2022-08-07T01:43:16.952Z,4.28
2022-08-07T01:44:19.265Z,5.50
2022-08-07T01:45:22.743Z,5.85
2022-08-07T01:46:26.369Z,5.18
2022-08-07T01:48:18.978Z,5.05
2022-08-07T01:48:50.782Z,5.20
2022-08-07T01:49:53.637Z,4.60
2022-08-07T01:51:24.157Z,5.35
2022-08-07T01:52:31.063Z,5.15
2022-08-07T01:54:12.784Z,5.03
2022-08-07T01:54:59.972Z,4.97
2022-08-07T01:56:10.637Z,4.55
2022-08-07T01:57:24.203Z,4.35
2022-08-07T01:58:33.376Z,5.18
2022-08-07T02:00:13.387Z,4.70
2022-08-07T02:01:25.346Z,4.90
2022-08-07T02:03:11.983Z,4.40
2022-08-07T02:04:17.748Z,4.90
2022-08-07T02:05:47.573Z,4.53
2022-08-07T02:06:56.993Z,4.30
2022-08-07T02:08:02.196Z,4.00
2022-08-07T02:09:06.359Z,4.30
2022-08-07T02:10:09.260Z,4.55
2022-08-07T02:11:30.874Z,4.07
2022-08-07T02:12:40.876Z,4.20
2022-08-07T02:13:56.381Z,4.22
2022-08-07T02:15:01.761Z,4.03
2022-08-07T02:16:11.839Z,4.03
2022-08-07T02:17:24.753Z,3.90
2022-08-07T02:18:33.007Z,4.00
2022-08-07T02:20:04.473Z,4.18
2022-08-07T02:21:06.443Z,4.35
2022-08-07T02:22:09.955Z,4.30
2022-08-07T02:23:13.784Z,4.43
2022-08-07T02:24:26.298Z,4.32
2022-08-07T02:26:31.413Z,3.88
2022-08-07T02:26:56.781Z,4.25
2022-08-07T02:28:02.661Z,4.05
2022-08-07T02:29:13.505Z,5.40
2022-08-07T02:30:15.719Z,4.55
2022-08-07T02:31:28.938Z,5.45
2022-08-07T02:32:33.125Z,4.43
2022-08-07T02:33:57.281Z,4.57
2022-08-07T02:35:01.115Z,4.72
2022-08-07T02:36:28.806Z,4.70
2022-08-07T02:37:26.369Z,4.13
2022-08-07T02:38:32.519Z,5.00
2022-08-07T02:39:43.802Z,4.15
2022-08-07T02:40:58.403Z,4.68
2022-08-07T02:42:01.945Z,4.57
2022-08-07T02:43:07.917Z,4.53
2022-08-07T02:44:11.663Z,4.95
2022-08-07T02:46:00.907Z,4.10
2022-08-07T02:46:46.707Z,4.88
2022-08-07T02:47:54.542Z,4.93
2022-08-07T02:49:03.271Z,5.03
2022-08-07T02:50:07.769Z,4.60
2022-08-07T02:51:41.864Z,4.75
2022-08-07T02:52:44.209Z,4.75
2022-08-07T02:53:54.325Z,4.97
2022-08-07T02:54:59.607Z,5.13
2022-08-07T02:56:11.262Z,5.10
2022-08-07T02:57:22.254Z,4.90
2022-08-07T02:58:27.308Z,5.70
2022-08-07T02:59:31.497Z,5.22
2022-08-07T03:00:36.049Z,5.22
2022-08-07T03:01:42.196Z,5.57
2022-08-07T03:02:54.926Z,4.85
2022-08-07T03:03:57.997Z,5.70
2022-08-07T03:05:06.759Z,6.13
2022-08-07T03:06:16.653Z,6.15
2022-08-07T03:07:42.977Z,5.35
2022-08-07T03:08:50.984Z,5.55
2022-08-07T03:09:54.448Z,5.72
2022-08-07T03:10:56.814Z,4.95
2022-08-07T03:12:02.886Z,5.22
2022-08-07T03:13:05.965Z,5.15
2022-08-07T03:14:10.607Z,5.45
2022-08-07T03:15:13.073Z,5.50
2022-08-07T03:16:33.087Z,4.40
2022-08-07T03:17:53.763Z,4.80
2022-08-07T03:18:56.520Z,5.05
2022-08-07T03:19:58.997Z,3.88
2022-08-07T03:21:02.323Z,4.70
2022-08-07T03:22:08.230Z,4.53
2022-08-07T03:23:21.848Z,4.90
2022-08-07T03:24:36.578Z,4.78
2022-08-07T03:25:41.885Z,5.32
2022-08-07T03:26:51.285Z,4.90
2022-08-07T03:28:09.609Z,4.65
2022-08-07T03:29:27.556Z,4.35
2022-08-07T03:30:30.862Z,4.35
2022-08-07T03:31:43.625Z,5.20
2022-08-07T03:32:58.349Z,4.70
2022-08-07T03:34:02.662Z,4.18
2022-08-07T03:35:17.748Z,4.68
2022-08-07T03:36:21.866Z,4.60
2022-08-07T03:37:32.589Z,4.85
2022-08-07T03:38:39.969Z,4.45
2022-08-07T03:40:00.163Z,4.72
2022-08-07T03:41:05.560Z,4.43
2022-08-07T03:42:12.600Z,4.25
2022-08-07T03:43:15.405Z,4.18
2022-08-07T03:44:21.602Z,4.35
2022-08-07T03:45:33.906Z,3.58
2022-08-07T03:47:13.222Z,3.65
2022-08-07T03:48:04.857Z,2.50
2022-08-07T03:49:11.824Z,2.42
2022-08-07T03:50:24.181Z,2.40
2022-08-07T03:51:30.954Z,2.30
2022-08-07T03:52:51.324Z,2.50
2022-08-07T03:54:33.413Z,2.40
2022-08-07T03:55:14.919Z,1.85
2022-08-07T03:56:33.535Z,2.20
2022-08-07T03:58:34.344Z,2.30
2022-08-07T03:59:08.923Z,2.10
2022-08-07T04:00:16.836Z,2.33
2022-08-07T04:01:23.903Z,2.00
2022-08-07T04:02:26.001Z,2.60
2022-08-07T04:03:28.293Z,2.42
2022-08-07T04:04:50.635Z,2.22
2022-08-07T04:05:52.693Z,2.20
2022-08-07T04:07:00.680Z,1.73
2022-08-07T04:08:03.920Z,2.03
2022-08-07T04:09:15.925Z,2.20
2022-08-07T04:10:19.094Z,2.00
2022-08-07T04:12:26.432Z,2.15
2022-08-07T04:12:44.009Z,2.55
2022-08-07T04:14:10.159Z,2.03
2022-08-07T04:15:10.204Z,2.35
2022-08-07T04:16:13.657Z,2.22
2022-08-07T04:17:21.933Z,2.08
2022-08-07T04:18:57.907Z,2.25
2022-08-07T04:19:52.290Z,2.65
2022-08-07T04:20:56.131Z,2.55
2022-08-07T04:22:07.838Z,2.72
2022-08-07T04:23:19.378Z,2.80
2022-08-07T04:24:30.423Z,2.88
2022-08-07T04:25:39.022Z,2.33
2022-08-07T04:26:43.612Z,2.58
2022-08-07T04:27:46.188Z,2.70
2022-08-07T04:29:01.115Z,2.60
2022-08-07T04:30:11.651Z,2.60
2022-08-07T04:31:39.155Z,2.58
2022-08-07T04:32:49.206Z,2.47
2022-08-07T04:34:01.346Z,2.55
2022-08-07T04:35:06.446Z,2.20
2022-08-07T04:36:14.701Z,2.53
2022-08-07T04:37:23.803Z,2.65
2022-08-07T04:38:26.729Z,3.28
2022-08-07T04:39:35.576Z,3.00
2022-08-07T04:40:51.237Z,2.35
2022-08-07T04:41:54.135Z,2.88
2022-08-07T04:42:55.827Z,3.50
2022-08-07T04:44:12.390Z,2.75
2022-08-07T04:45:57.316Z,3.33
2022-08-07T04:47:03.947Z,3.30
2022-08-07T04:48:45.141Z,3.40
2022-08-07T04:50:08.067Z,2.88
2022-08-07T04:51:33.102Z,3.30
2022-08-07T04:52:51.739Z,3.30
2022-08-07T04:54:06.378Z,2.72
2022-08-07T04:58:09.709Z,3.35
2022-08-07T04:58:11.626Z,2.90
2022-08-07T04:59:17.085Z,3.60
2022-08-07T05:00:18.956Z,3.25
2022-08-07T05:01:35.796Z,3.20
2022-08-07T05:02:54.852Z,3.40
2022-08-07T05:04:17.941Z,3.05
2022-08-07T05:05:53.930Z,3.90
2022-08-07T05:06:58.354Z,3.88
2022-08-07T05:08:17.931Z,3.22
2022-08-07T05:09:50.695Z,4.43
2022-08-07T05:11:04.277Z,3.90
2022-08-07T05:12:15.589Z,4.05
2022-08-07T05:14:52.820Z,3.70
2022-08-07T05:15:23.073Z,3.67
2022-08-07T05:16:31.332Z,3.65
2022-08-07T05:17:50.841Z,3.80
2022-08-07T05:19:02.048Z,4.35
2022-08-07T05:20:09.476Z,4.30
2022-08-07T05:21:14.669Z,3.72
2022-08-07T05:22:19.111Z,3.30
2022-08-07T05:23:45.401Z,3.72
2022-08-07T05:24:51.035Z,3.17
2022-08-07T05:26:10.505Z,3.13
2022-08-07T05:28:16.099Z,3.15
2022-08-07T05:28:40.820Z,3.45
2022-08-07T05:29:52.165Z,3.63
2022-08-07T05:30:57.078Z,3.17
2022-08-07T05:32:00.908Z,3.40
2022-08-07T05:33:06.179Z,3.05
2022-08-07T05:34:12.236Z,2.90
2022-08-07T05:35:15.283Z,3.20
2022-08-07T05:36:22.578Z,2.92
2022-08-07T05:37:32.795Z,3.47
2022-08-07T05:39:01.106Z,2.95
2022-08-07T05:40:17.809Z,3.05
2022-08-07T05:41:22.203Z,2.97
2022-08-07T05:42:34.688Z,3.17
2022-08-07T05:43:50.199Z,2.90
2022-08-07T05:45:11.853Z,2.75
2022-08-07T05:46:22.627Z,3.20
2022-08-07T05:48:00.173Z,3.50
2022-08-07T05:48:59.241Z,2.92
2022-08-07T05:50:02.873Z,2.83
2022-08-07T05:51:06.991Z,3.05
2022-08-07T05:52:11.937Z,2.70
2022-08-07T05:54:13.998Z,3.03
2022-08-07T05:54:44.504Z,3.20
2022-08-07T05:56:02.225Z,2.65
2022-08-07T05:57:06.609Z,3.15
2022-08-07T05:58:10.495Z,3.05
2022-08-07T05:59:17.106Z,2.80
2022-08-07T06:00:19.651Z,3.80
2022-08-07T06:01:23.693Z,2.75
2022-08-07T06:02:31.060Z,3.45
2022-08-07T06:03:47.047Z,3.10
2022-08-07T06:04:59.330Z,2.83
2022-08-07T06:06:01.397Z,2.70
2022-08-07T06:07:05.940Z,2.45
2022-08-07T06:08:29.498Z,3.20
2022-08-07T06:10:04.142Z,3.15
2022-08-07T06:10:55.039Z,2.70
2022-08-07T06:11:58.296Z,3.00
2022-08-07T06:13:03.390Z,2.85
2022-08-07T06:14:11.921Z,2.60
2022-08-07T06:15:16.459Z,2.90
2022-08-07T06:16:28.297Z,2.80
2022-08-07T06:17:37.360Z,2.90
2022-08-07T06:18:40.676Z,2.63
2022-08-07T06:19:51.952Z,2.40
2022-08-07T06:22:15.282Z,2.65
2022-08-07T06:22:29.031Z,2.58
2022-08-07T06:24:36.799Z,2.75
2022-08-07T06:24:58.094Z,2.42
2022-08-07T06:26:03.920Z,2.95
2022-08-07T06:27:06.093Z,2.65
2022-08-07T06:28:10.604Z,2.92
2022-08-07T06:29:16.509Z,2.92
2022-08-07T06:30:32.064Z,3.17
2022-08-07T06:31:46.995Z,3.03
2022-08-07T06:32:52.186Z,2.80
2022-08-07T06:33:54.699Z,2.95
2022-08-07T06:34:56.315Z,3.10
2022-08-07T06:36:12.455Z,2.65
2022-08-07T06:37:17.315Z,2.70
2022-08-07T06:38:22.124Z,3.08
2022-08-07T06:40:16.942Z,3.30
2022-08-07T06:40:51.335Z,3.05
2022-08-07T06:42:03.534Z,3.45
2022-08-07T06:43:21.427Z,3.17
2022-08-07T06:44:26.092Z,2.80
2022-08-07T06:45:34.329Z,3.90
2022-08-07T06:46:37.800Z,3.30
2022-08-07T06:47:57.339Z,2.92
2022-08-07T06:49:03.953Z,3.85
2022-08-07T06:50:06.940Z,3.00
2022-08-07T06:51:31.032Z,3.38
2022-08-07T06:52:39.146Z,2.50
2022-08-07T06:55:29.446Z,3.05
2022-08-07T06:55:32.302Z,3.28
2022-08-07T06:56:49.711Z,3.00
2022-08-07T06:57:56.858Z,3.20
2022-08-07T07:00:14.548Z,2.70
2022-08-07T07:00:21.800Z,2.60
2022-08-07T07:01:23.662Z,2.72
2022-08-07T07:02:48.838Z,2.80
2022-08-07T07:03:55.111Z,2.90
2022-08-07T07:05:04.453Z,3.15
2022-08-07T07:06:11.077Z,2.85
2022-08-07T07:07:58.665Z,3.17
2022-08-07T07:08:36.065Z,2.65
2022-08-07T07:09:49.385Z,2.88
2022-08-07T07:10:56.415Z,3.05
2022-08-07T07:12:15.529Z,3.50
2022-08-07T07:13:43.706Z,2.78
2022-08-07T07:15:24.079Z,2.72
2022-08-07T07:16:33.421Z,2.80
2022-08-07T07:17:45.455Z,2.70
2022-08-07T07:18:57.606Z,2.90
2022-08-07T07:20:03.165Z,3.70
2022-08-07T07:21:40.288Z,3.33
2022-08-07T07:24:06.045Z,2.72
2022-08-07T07:24:18.348Z,2.70
2022-08-07T07:26:34.882Z,3.33
2022-08-07T07:26:49.598Z,2.50
2022-08-07T07:28:29.916Z,3.00
2022-08-07T07:30:08.738Z,3.03
2022-08-07T07:31:21.443Z,2.80
2022-08-07T07:32:25.270Z,2.90
2022-08-07T07:33:30.446Z,2.60
2022-08-07T07:34:34.695Z,3.15
2022-08-07T07:35:51.876Z,3.03
2022-08-07T07:37:05.381Z,3.17
2022-08-07T07:38:25.887Z,2.60
2022-08-07T07:39:45.578Z,2.90
2022-08-07T07:41:01.863Z,2.80
2022-08-07T07:42:13.334Z,2.40
2022-08-07T07:43:18.724Z,2.40
2022-08-07T07:44:30.242Z,2.70
2022-08-07T07:46:36.751Z,2.10
2022-08-07T07:47:04.382Z,2.67
2022-08-07T07:48:34.871Z,2.07
2022-08-07T07:50:35.903Z,2.27
2022-08-07T07:51:07.717Z,2.27
2022-08-07T07:52:12.890Z,2.13
2022-08-07T07:53:20.660Z,2.40
2022-08-07T07:54:29.520Z,1.83
2022-08-07T07:55:37.601Z,2.27
2022-08-07T07:56:48.755Z,2.50
2022-08-07T07:57:53.989Z,2.20
2022-08-07T07:59:06.015Z,2.33
2022-08-07T08:00:09.319Z,1.93
2022-08-07T08:02:04.096Z,1.90
2022-08-07T08:02:35.974Z,2.43
2022-08-07T08:04:10.017Z,1.67
2022-08-07T08:05:08.105Z,2.50
2022-08-07T08:06:18.751Z,1.70
2022-08-07T08:07:24.410Z,2.23
2022-08-07T08:08:41.775Z,1.87
2022-08-07T08:09:52.303Z,2.10
2022-08-07T08:11:13.443Z,1.70
2022-08-07T08:12:36.783Z,1.60
2022-08-07T08:13:54.348Z,1.83
2022-08-07T08:14:57.376Z,1.80
2022-08-07T08:16:02.580Z,1.60
2022-08-07T08:17:56.664Z,1.80
2022-08-07T08:18:30.280Z,1.60
2022-08-07T08:20:17.859Z,1.83
2022-08-07T08:20:56.824Z,1.80
2022-08-07T08:22:19.293Z,1.93
2022-08-07T08:23:40.978Z,1.97
2022-08-07T08:25:18.256Z,2.00
2022-08-07T08:26:40.898Z,1.67
2022-08-07T08:27:56.530Z,1.90
2022-08-07T08:29:04.257Z,1.50
2022-08-07T08:30:14.137Z,1.63
2022-08-07T08:32:17.540Z,1.77
2022-08-07T08:33:01.672Z,1.73
2022-08-07T08:34:06.193Z,1.40
2022-08-07T08:35:13.642Z,1.50
2022-08-07T08:36:25.717Z,1.30
2022-08-07T08:38:00.397Z,1.50
2022-08-07T08:39:01.873Z,1.53
2022-08-07T08:40:12.377Z,1.10
2022-08-07T08:41:58.825Z,1.40
2022-08-07T08:43:16.156Z,1.30
2022-08-07T08:44:44.649Z,1.20
2022-08-07T08:46:07.993Z,1.20
2022-08-07T08:47:25.075Z,1.10
2022-08-07T08:48:36.379Z,1.37
2022-08-07T08:50:05.136Z,0.93
2022-08-07T08:51:26.201Z,1.30
2022-08-07T08:52:54.142Z,1.13
2022-08-07T08:54:10.888Z,1.13
2022-08-07T08:55:54.704Z,1.10
2022-08-07T08:56:49.845Z,1.00
2022-08-07T08:58:13.236Z,1.10
2022-08-07T08:59:42.119Z,1.20
2022-08-07T09:00:56.537Z,1.27
2022-08-07T09:02:35.275Z,0.90
2022-08-07T09:04:07.021Z,1.37
2022-08-07T09:05:37.487Z,0.87
2022-08-07T09:06:54.188Z,1.00
2022-08-07T09:08:24.419Z,1.03
2022-08-07T09:10:04.677Z,1.20
2022-08-07T09:11:08.281Z,1.00
2022-08-07T09:12:53.017Z,0.90
2022-08-07T09:14:13.299Z,0.87
2022-08-07T09:16:20.138Z,1.30
2022-08-07T09:17:02.069Z,0.80
2022-08-07T09:18:28.302Z,1.20
2022-08-07T09:19:53.180Z,0.90
2022-08-07T09:21:34.384Z,0.80
2022-08-07T09:24:32.307Z,0.80
2022-08-07T09:24:58.959Z,1.20
2022-08-07T09:26:27.715Z,0.80
2022-08-07T09:27:59.578Z,0.90
2022-08-07T09:30:05.169Z,1.00
2022-08-07T09:30:46.721Z,0.80
2022-08-07T09:32:18.576Z,0.90
2022-08-07T09:33:56.839Z,0.90
2022-08-07T09:36:01.061Z,0.80
2022-08-07T09:36:59.902Z,0.80
2022-08-07T09:38:04.380Z,1.23
2022-08-07T09:39:54.627Z,0.77
2022-08-07T09:40:42.174Z,0.80
2022-08-07T09:42:17.241Z,0.80
2022-08-07T09:44:06.170Z,0.90
2022-08-07T09:47:49.711Z,1.07
2022-08-07T09:47:50.136Z,0.93
2022-08-07T09:50:01.671Z,0.80
2022-08-07T09:50:31.302Z,1.17
2022-08-07T09:52:15.973Z,0.77
2022-08-07T09:53:12.650Z,0.73
2022-08-07T09:54:27.248Z,0.70
2022-08-07T09:56:07.882Z,1.00
2022-08-07T09:57:36.589Z,0.70
2022-08-07T09:59:14.103Z,0.90
2022-08-07T10:00:21.539Z,0.80
2022-08-07T10:01:58.067Z,0.70
2022-08-07T10:04:06.153Z,0.80
2022-08-07T10:05:12.523Z,0.60
2022-08-07T10:06:54.047Z,0.80
2022-08-07T10:07:57.609Z,1.07
2022-08-07T10:09:23.603Z,0.90
2022-08-07T10:11:17.177Z,0.70
2022-08-07T10:12:52.914Z,0.80
2022-08-07T10:14:31.816Z,0.70
2022-08-07T10:15:46.167Z,0.70
2022-08-07T10:17:16.800Z,0.60
2022-08-07T10:18:38.600Z,0.70
2022-08-07T10:19:45.949Z,0.90
2022-08-07T10:21:20.109Z,0.97
2022-08-07T10:23:09.727Z,0.90
2022-08-07T10:24:39.690Z,0.90
2022-08-07T10:26:35.120Z,0.60
2022-08-07T10:28:09.142Z,0.70
2022-08-07T10:29:51.993Z,0.70
2022-08-07T10:31:31.530Z,0.80
2022-08-07T10:33:15.100Z,0.80
2022-08-07T10:34:32.140Z,0.83
2022-08-07T10:36:05.610Z,0.70
2022-08-07T10:38:00.539Z,0.90
2022-08-07T10:39:01.095Z,0.70
2022-08-07T10:40:21.801Z,0.70
2022-08-07T10:41:46.986Z,0.80
2022-08-07T10:43:15.061Z,0.87
2022-08-07T10:44:39.624Z,0.70
2022-08-07T10:45:58.295Z,0.90
2022-08-07T10:47:27.084Z,0.70
2022-08-07T10:49:12.439Z,0.63
2022-08-07T10:50:25.868Z,0.60
2022-08-07T10:52:01.865Z,0.60
2022-08-07T10:53:27.530Z,0.80
2022-08-07T10:55:00.951Z,0.77
2022-08-07T10:56:30.954Z,0.70
2022-08-07T10:58:03.266Z,0.70
2022-08-07T10:59:21.682Z,0.80
2022-08-07T11:00:39.547Z,0.80
2022-08-07T11:02:27.261Z,0.80
2022-08-07T11:03:52.618Z,0.70
2022-08-07T11:05:49.232Z,0.80
2022-08-07T11:07:24.607Z,0.60
2022-08-07T11:08:38.962Z,0.50
2022-08-07T11:11:07.964Z,0.80
2022-08-07T11:12:18.948Z,0.60
2022-08-07T11:14:43.503Z,0.67
2022-08-07T11:15:17.446Z,0.60
2022-08-07T11:16:29.779Z,0.53
2022-08-07T11:18:03.771Z,0.70
2022-08-07T11:19:27.189Z,0.70
2022-08-07T11:20:38.245Z,0.70
2022-08-07T11:22:02.100Z,0.70
2022-08-07T11:23:26.178Z,0.70
2022-08-07T11:25:00.266Z,0.90
2022-08-07T11:26:23.460Z,0.70
2022-08-07T11:28:02.585Z,0.70
2022-08-07T11:29:13.189Z,0.60
2022-08-07T11:30:55.903Z,0.60
2022-08-07T11:32:25.420Z,0.70
2022-08-07T11:33:59.496Z,0.60
2022-08-07T11:35:10.694Z,0.80
2022-08-07T11:36:34.055Z,0.70
2022-08-07T11:38:12.933Z,0.73
2022-08-07T11:39:59.157Z,0.70
2022-08-07T11:41:22.117Z,0.60
2022-08-07T11:42:59.943Z,0.80
2022-08-07T11:44:18.883Z,0.60
2022-08-07T11:45:29.993Z,0.80
2022-08-07T11:46:50.213Z,0.80
2022-08-07T11:48:29.394Z,1.00
2022-08-07T11:50:18.871Z,0.70
2022-08-07T11:51:40.679Z,0.80
2022-08-07T11:52:55.778Z,0.70
2022-08-07T11:54:33.624Z,0.60
2022-08-07T11:56:25.546Z,0.90
2022-08-07T11:58:00.025Z,0.70
2022-08-07T12:00:08.844Z,1.20
2022-08-07T12:01:00.243Z,0.97
2022-08-07T12:02:33.283Z,0.90
2022-08-07T12:03:49.782Z,0.70
2022-08-07T12:05:00.511Z,0.60
2022-08-07T12:06:37.013Z,0.80
2022-08-07T12:07:53.843Z,1.00
2022-08-07T12:09:25.868Z,0.80
2022-08-07T12:11:08.151Z,0.70
2022-08-07T12:12:25.713Z,0.80
2022-08-07T12:13:51.932Z,1.00
2022-08-07T12:15:17.308Z,0.83
2022-08-07T12:16:41.192Z,0.60
2022-08-07T12:17:59.216Z,0.80
2022-08-07T12:19:07.581Z,0.70
2022-08-07T12:20:30.586Z,1.77
2022-08-07T12:22:36.936Z,1.10
2022-08-07T12:24:06.046Z,0.97
2022-08-07T12:26:06.097Z,1.67
2022-08-07T12:27:28.000Z,1.10
2022-08-07T12:29:08.833Z,0.93
2022-08-07T12:30:13.621Z,0.70
2022-08-07T12:32:01.817Z,0.70
2022-08-07T12:33:18.673Z,0.60
2022-08-07T12:34:21.869Z,0.73
2022-08-07T12:35:31.039Z,0.80
2022-08-07T12:36:38.451Z,0.70
2022-08-07T12:38:09.097Z,0.60
2022-08-07T12:39:43.751Z,0.80
2022-08-07T12:40:47.618Z,0.67
2022-08-07T12:41:53.692Z,0.67
2022-08-07T12:42:57.902Z,1.00
2022-08-07T12:44:04.333Z,0.87
2022-08-07T12:45:16.114Z,0.90
2022-08-07T12:46:48.792Z,0.77
2022-08-07T12:48:27.974Z,0.60
2022-08-07T12:50:39.104Z,0.70
2022-08-07T12:52:05.339Z,0.70
2022-08-07T12:54:24.245Z,0.80
2022-08-07T12:55:16.550Z,0.70
2022-08-07T12:56:28.984Z,0.87
2022-08-07T12:57:59.510Z,0.70
2022-08-07T12:58:58.060Z,0.80
2022-08-07T13:00:05.937Z,0.70
2022-08-07T13:01:37.340Z,0.70
2022-08-07T13:02:47.227Z,0.70
2022-08-07T13:04:06.443Z,0.90
2022-08-07T13:06:02.482Z,0.63
2022-08-07T13:08:12.622Z,0.60
2022-08-07T13:08:59.872Z,0.60
2022-08-07T13:10:37.479Z,0.80
2022-08-07T13:12:15.402Z,0.70
2022-08-07T13:13:46.676Z,0.70
2022-08-07T13:15:04.709Z,0.63
2022-08-07T13:16:50.777Z,0.60
2022-08-07T13:18:26.049Z,0.70
2022-08-07T13:19:50.886Z,0.80
2022-08-07T13:21:09.615Z,0.60
2022-08-07T13:22:32.760Z,0.90
2022-08-07T13:24:25.665Z,0.70
2022-08-07T13:25:41.771Z,0.70
2022-08-07T13:26:52.467Z,0.70
2022-08-07T13:28:11.077Z,0.70
2022-08-07T13:29:23.776Z,0.70
2022-08-07T13:30:41.234Z,0.83
2022-08-07T13:31:57.646Z,0.70
2022-08-07T13:34:14.767Z,0.60
2022-08-07T13:34:37.841Z,0.60
2022-08-07T13:36:00.673Z,0.70
2022-08-07T13:37:22.179Z,0.70
2022-08-07T13:38:28.563Z,0.60
2022-08-07T13:40:32.599Z,0.70
2022-08-07T13:41:21.302Z,0.83
2022-08-07T13:42:25.510Z,0.70
2022-08-07T13:43:27.637Z,0.70
2022-08-07T13:44:37.028Z,0.60
2022-08-07T13:46:11.339Z,0.60
2022-08-07T13:47:09.487Z,0.60
2022-08-07T13:48:27.570Z,0.67
2022-08-07T13:50:33.461Z,0.80
2022-08-07T13:51:27.292Z,1.00
2022-08-07T13:52:39.571Z,0.67
2022-08-07T13:54:00.285Z,0.70
2022-08-07T13:55:13.148Z,0.60
2022-08-07T13:56:35.602Z,0.73
2022-08-07T13:57:59.131Z,0.60
2022-08-07T13:59:10.373Z,0.70
2022-08-07T14:00:26.294Z,0.73
2022-08-07T14:01:55.627Z,0.60
2022-08-07T14:02:58.750Z,1.10
2022-08-07T14:04:11.594Z,0.70
2022-08-07T14:05:20.035Z,0.70
2022-08-07T14:06:31.019Z,0.70
2022-08-07T14:07:38.100Z,0.60
2022-08-07T14:09:00.839Z,0.70
2022-08-07T14:10:17.736Z,0.60
2022-08-07T14:11:28.505Z,0.60
2022-08-07T14:12:57.701Z,0.60
2022-08-07T14:14:07.468Z,0.60
2022-08-07T14:15:22.402Z,0.80
2022-08-07T14:16:36.876Z,0.90
2022-08-07T14:18:16.120Z,0.60
2022-08-07T14:19:17.998Z,0.67
2022-08-07T14:20:49.100Z,0.63
2022-08-07T14:22:03.295Z,0.93
2022-08-07T14:23:58.724Z,0.70
2022-08-07T14:24:54.497Z,0.70
2022-08-07T14:26:01.879Z,0.60
2022-08-07T14:28:09.743Z,0.70
2022-08-07T14:28:58.967Z,0.60
2022-08-07T14:30:11.227Z,0.60
2022-08-07T14:31:14.666Z,0.70
2022-08-07T14:32:19.158Z,0.80
2022-08-07T14:33:23.658Z,0.83
2022-08-07T14:34:30.106Z,0.67
2022-08-07T14:35:42.857Z,0.60
2022-08-07T14:36:55.911Z,0.60
2022-08-07T14:38:05.486Z,0.60
2022-08-07T14:39:12.574Z,0.60
2022-08-07T14:40:35.365Z,0.60
2022-08-07T14:42:20.344Z,0.60
2022-08-07T14:43:59.026Z,0.70
2022-08-07T14:44:33.287Z,0.70
2022-08-07T14:45:46.748Z,0.60
2022-08-07T14:47:14.653Z,0.60
2022-08-07T14:48:27.683Z,0.60
2022-08-07T14:49:57.167Z,0.60
2022-08-07T14:50:57.753Z,0.60
2022-08-07T14:54:54.036Z,0.70
2022-08-07T14:56:00.886Z,0.70
2022-08-07T14:57:06.450Z,0.60
2022-08-07T14:58:24.200Z,0.70
2022-08-07T15:00:52.193Z,0.60
2022-08-07T15:01:58.280Z,0.80
2022-08-07T15:05:55.275Z,0.70
2022-08-07T15:07:17.847Z,0.60
2022-08-07T15:08:32.260Z,0.60
2022-08-07T15:09:59.191Z,0.60
2022-08-07T15:11:11.178Z,0.70
2022-08-07T15:12:30.473Z,0.60
2022-08-07T15:15:21.161Z,0.50
2022-08-07T15:16:54.978Z,0.90
2022-08-07T15:18:02.765Z,0.70
2022-08-07T15:19:10.704Z,0.63
2022-08-07T15:20:32.357Z,0.70
2022-08-07T15:21:58.934Z,0.67
2022-08-07T15:23:20.155Z,0.60
2022-08-07T15:26:02.496Z,0.60
2022-08-07T15:27:12.152Z,0.60
2022-08-07T15:30:04.652Z,0.70
2022-08-07T15:31:12.169Z,0.80
2022-08-07T15:32:14.987Z,0.73
2022-08-07T15:33:42.785Z,0.67
2022-08-07T15:42:43.261Z,0.70
2022-08-07T15:43:53.767Z,0.60
2022-08-07T15:44:51.938Z,0.60
2022-08-07T15:46:04.493Z,0.73
2022-08-07T15:48:00.862Z,0.60
2022-08-07T15:49:11.991Z,0.60
2022-08-07T15:50:37.492Z,0.70
2022-08-07T15:53:09.058Z,0.70
2022-08-07T15:54:13.807Z,0.90
2022-08-07T15:55:20.429Z,0.90
2022-08-07T15:56:37.337Z,0.90
2022-08-07T15:57:51.079Z,0.70
2022-08-07T15:58:57.205Z,0.63
2022-08-07T16:00:04.484Z,0.60
2022-08-07T16:01:23.667Z,0.80
2022-08-07T16:02:46.902Z,0.50
2022-08-07T16:03:58.490Z,0.60
2022-08-07T16:05:04.297Z,0.73
2022-08-07T16:06:29.473Z,0.70
2022-08-07T16:08:33.089Z,0.60
2022-08-07T16:09:12.068Z,0.70
2022-08-07T16:10:28.484Z,0.80
2022-08-07T16:12:02.938Z,0.60
2022-08-07T16:13:39.560Z,0.70
2022-08-07T16:15:00.334Z,0.70
2022-08-07T16:16:47.603Z,0.60
2022-08-07T16:18:03.698Z,0.70
2022-08-07T16:19:09.707Z,0.73
2022-08-07T16:20:33.702Z,0.70
2022-08-07T16:22:30.156Z,0.93
2022-08-07T16:24:34.628Z,0.70
2022-08-07T16:25:56.632Z,0.60
2022-08-07T16:27:18.595Z,0.70
2022-08-07T16:30:09.271Z,0.60
2022-08-07T16:30:31.936Z,0.60
2022-08-07T16:31:57.882Z,1.00
2022-08-07T16:34:01.473Z,0.63
2022-08-07T16:34:48.805Z,0.60
2022-08-07T16:36:18.284Z,0.70
2022-08-07T16:38:02.982Z,0.90
2022-08-07T16:39:40.407Z,0.80
2022-08-07T16:41:04.341Z,1.10
2022-08-07T16:42:45.689Z,0.60
2022-08-07T16:44:31.807Z,0.70
2022-08-07T16:46:34.669Z,0.90
2022-08-07T16:47:28.785Z,0.60
2022-08-07T16:50:28.730Z,0.60
2022-08-07T16:51:20.589Z,0.60
2022-08-07T16:52:55.610Z,0.87
2022-08-07T16:54:54.892Z,0.60
2022-08-07T16:56:04.319Z,0.70
2022-08-07T16:58:02.957Z,0.60
2022-08-07T16:59:15.218Z,0.70
2022-08-07T17:00:29.807Z,0.70
2022-08-07T17:01:41.894Z,0.80
2022-08-07T17:03:05.836Z,0.73
2022-08-07T17:04:27.103Z,0.90
2022-08-07T17:06:19.573Z,0.77
2022-08-07T17:07:55.656Z,0.93
2022-08-07T17:09:13.881Z,0.80
2022-08-07T17:10:39.648Z,0.70
2022-08-07T17:12:36.789Z,0.80
2022-08-07T17:14:18.628Z,0.70
2022-08-07T17:15:44.315Z,0.80
2022-08-07T17:17:02.391Z,0.70
2022-08-07T17:18:14.379Z,0.90
2022-08-07T17:20:02.397Z,0.70
2022-08-07T17:21:19.104Z,0.70
2022-08-07T17:22:37.944Z,0.80
2022-08-07T17:23:50.224Z,0.80
2022-08-07T17:25:08.428Z,0.70
2022-08-07T17:26:35.886Z,0.70
2022-08-07T17:28:25.590Z,0.70
2022-08-07T17:30:15.340Z,0.60
2022-08-07T17:31:34.818Z,0.60
2022-08-07T17:34:09.473Z,1.00